Terminal Aerodrome Forecast
Issued by NWS Wilmington, OH

Current Version | Previous Version | Graphics & Text | Print | Product List | Glossary On
Versions: 1 2 3 4 5 6 7 8 9 10 11 12 13 14 15 16 17 18 19 20
215
FTUS41 KILN 222335
TAFDAY
TAF
KDAY 222335Z 2300/2324 23005KT P6SM FEW035 SCT250
      TEMPO 2308/2312 3SM BR
     FM231300 26007KT P6SM FEW050 SCT250=

USA.gov is the U.S. government's official web portal to all federal, state and local government web resources and services.